Time;durP1;ratioP1;P1;durP2;ratioP2;P2;SDS_P1;SDS_P2;PMS_P1;PMS_P2;Temp;Humidity;BMP_temperature;BMP_pressure;BME280_temperature;BME280_humidity;BME280_pressure;Samples;Min_cycle;Max_cycle;Signal;HPM_P1;HPM_P2
2021/11/01 08:21:46;;;;;;;26.97;14.73;;;12.70;99.90;;;;;;5048025;23;20678;-53
2021/11/01 08:24:37;;;;;;;19.93;12.70;;;12.70;99.90;;;;;;5041397;28;20479;-55
2021/11/01 08:27:22;;;;;;;21.80;13.20;;;12.70;99.90;;;;;;5048428;23;20483;-54
2021/11/01 09:03:30;;;;;;;20.50;13.97;;;13.40;99.90;;;;;;5046752;23;20505;-49
2021/11/01 09:06:12;;;;;;;24.30;15.50;;;13.40;99.90;;;;;;5039333;28;20467;-56
2021/11/01 09:19:58;;;;;;;27.40;13.73;;;13.60;99.90;;;;;;5036125;23;20488;-56
2021/11/01 09:25:16;;;;;;;23.30;13.73;;;13.60;99.90;;;;;;5048411;23;20801;-54
2021/11/01 09:27:53;;;;;;;26.63;12.17;;;13.60;99.90;;;;;;5036588;28;20547;-54
2021/11/01 09:36:15;;;;;;;16.23;10.90;;;13.50;99.90;;;;;;5031168;23;20866;-53
2021/11/01 09:38:58;;;;;;;19.40;11.10;;;13.50;99.90;;;;;;5036755;28;20519;-53
2021/11/01 09:41:26;;;;;;;20.00;12.07;;;13.50;99.90;;;;;;5053784;23;20522;-54
2021/11/01 09:43:55;;;;;;;22.70;12.93;;;13.50;99.90;;;;;;5038397;28;20448;-54
2021/11/01 09:46:22;;;;;;;18.77;11.63;;;13.60;99.90;;;;;;5043928;23;20487;-53
2021/11/01 09:48:55;;;;;;;17.43;11.17;;;13.60;99.90;;;;;;5038686;28;20464;-54
2021/11/01 09:51:22;;;;;;;24.10;13.37;;;13.70;99.90;;;;;;5042003;23;20484;-50
2021/11/01 09:53:50;;;;;;;24.40;13.37;;;13.80;99.90;;;;;;5036351;28;20789;-56
2021/11/01 09:56:28;;;;;;;22.60;13.30;;;13.80;99.90;;;;;;5047168;23;20475;-53
2021/11/01 09:59:15;;;;;;;31.43;14.37;;;13.80;99.90;;;;;;5037564;28;20483;-53
2021/11/01 10:01:43;;;;;;;22.23;13.70;;;13.80;99.90;;;;;;5063481;23;20574;-54
2021/11/01 10:04:17;;;;;;;19.53;11.47;;;13.80;99.90;;;;;;5038841;28;20425;-55
2021/11/01 10:06:45;;;;;;;15.77;10.50;;;13.90;99.90;;;;;;5048990;23;20472;-58
2021/11/01 10:09:13;;;;;;;18.20;11.47;;;13.90;99.90;;;;;;5036488;28;20443;-55
2021/11/01 10:11:44;;;;;;;17.50;10.90;;;14.00;99.90;;;;;;5044731;23;20491;-54
2021/11/01 10:14:12;;;;;;;22.70;13.00;;;14.00;99.90;;;;;;5015608;28;20496;-52
2021/11/01 10:19:07;;;;;;;19.57;11.90;;;14.10;99.90;;;;;;5056821;23;20472;-55
2021/11/01 10:21:34;;;;;;;27.27;13.43;;;14.20;99.90;;;;;;5033922;28;21005;-56
2021/11/01 10:24:00;;;;;;;18.33;10.23;;;14.20;99.90;;;;;;5062287;23;20479;-50
2021/11/01 10:26:30;;;;;;;27.60;13.00;;;14.20;99.90;;;;;;5055967;28;20412;-48
2021/11/01 10:29:08;;;;;;;20.37;12.07;;;14.20;99.90;;;;;;5040688;28;20424;-55
2021/11/01 10:31:44;;;;;;;16.40;10.90;;;14.30;99.90;;;;;;5039408;28;20491;-56
2021/11/01 10:34:14;;;;;;;17.67;11.50;;;14.20;99.90;;;;;;5045492;23;20510;-54
2021/11/01 10:36:43;;;;;;;17.93;11.20;;;14.30;99.90;;;;;;5037097;28;20562;-51
2021/11/01 10:39:13;;;;;;;22.30;13.20;;;14.20;99.90;;;;;;5044249;23;20575;-55
2021/11/01 10:41:49;;;;;;;20.27;12.53;;;14.20;99.90;;;;;;5037286;28;20497;-55
2021/11/01 10:44:52;;;;;;;22.67;11.30;;;14.20;99.90;;;;;;5044402;23;20492;-54
2021/11/01 11:11:16;;;;;;;16.20;10.10;;;14.50;99.90;;;;;;5082521;23;20563;-57
2021/11/01 11:13:48;;;;;;;20.10;10.60;;;14.50;99.90;;;;;;5056506;28;20508;-51
2021/11/01 11:16:37;;;;;;;12.73;9.27;;;14.50;99.90;;;;;;5044328;28;20436;-50
2021/11/01 11:19:13;;;;;;;18.87;10.30;;;14.50;99.90;;;;;;5048116;23;20480;-54
2021/11/01 11:22:05;;;;;;;18.07;9.90;;;14.50;99.90;;;;;;5015946;28;20461;-52
2021/11/01 11:24:46;;;;;;;16.37;9.10;;;14.40;99.90;;;;;;5025706;23;20477;-55
2021/11/01 11:47:23;;;;;;;17.27;9.63;;;14.40;99.90;;;;;;5043342;23;21031;-55
2021/11/01 11:49:52;;;;;;;16.17;10.70;;;14.50;99.90;;;;;;5036073;28;20541;-54
2021/11/01 11:52:22;;;;;;;15.73;9.50;;;14.60;99.90;;;;;;5043993;23;20487;-56
2021/11/01 11:54:52;;;;;;;20.43;11.67;;;14.50;99.90;;;;;;5037961;28;20467;-51
2021/11/01 11:57:20;;;;;;;34.03;16.63;;;14.50;99.90;;;;;;5044306;23;20579;-54
2021/11/01 11:59:48;;;;;;;18.47;11.50;;;14.50;99.90;;;;;;5036871;28;20502;-55
2021/11/01 12:02:15;;;;;;;15.83;10.93;;;14.50;99.90;;;;;;5043475;23;20488;-52
2021/11/01 12:04:45;;;;;;;15.90;9.67;;;14.50;99.90;;;;;;5036445;28;20479;-51
2021/11/01 12:07:16;;;;;;;23.97;9.70;;;14.40;99.90;;;;;;5043369;23;20476;-54
2021/11/01 12:09:55;;;;;;;21.90;11.10;;;14.40;99.90;;;;;;5036099;28;20471;-53
2021/11/01 12:17:50;;;;;;;13.57;8.80;;;14.30;99.90;;;;;;5035898;28;20412;-52
2021/11/01 12:20:20;;;;;;;14.80;9.20;;;14.20;99.90;;;;;;5048054;23;20490;-56
2021/11/01 12:22:50;;;;;;;16.20;9.70;;;14.20;99.90;;;;;;5043587;28;20773;-53
2021/11/01 12:25:22;;;;;;;16.33;8.90;;;14.30;99.90;;;;;;5048173;23;20491;-58
2021/11/01 12:28:00;;;;;;;16.80;8.20;;;14.30;99.90;;;;;;5040352;28;20428;-54
2021/11/01 12:30:35;;;;;;;16.90;9.93;;;14.30;99.90;;;;;;5045472;23;20818;-55
2021/11/01 12:33:03;;;;;;;15.90;8.90;;;14.30;99.90;;;;;;5039061;28;20524;-55
2021/11/01 12:35:31;;;;;;;24.10;10.13;;;14.30;99.90;;;;;;5046409;23;20558;-52
2021/11/01 12:38:06;;;;;;;19.30;10.63;;;14.20;99.90;;;;;;5039889;28;20525;-50
2021/11/01 12:40:44;;;;;;;13.60;8.97;;;14.10;99.90;;;;;;5046531;23;20602;-56
2021/11/01 12:46:39;;;;;;;14.00;9.60;;;14.10;99.90;;;;;;5037081;23;20480;-55
2021/11/01 12:57:34;;;;;;;15.47;8.90;;;14.20;99.90;;;;;;4981731;28;20530;-53
2021/11/01 13:00:02;;;;;;;13.87;8.90;;;14.20;99.90;;;;;;5019209;28;20433;-51
2021/11/01 13:02:35;;;;;;;13.40;8.43;;;14.20;99.90;;;;;;5019207;28;20518;-54
2021/11/01 13:05:06;;;;;;;16.27;8.53;;;14.20;99.90;;;;;;5020150;28;20449;-53
2021/11/01 13:07:48;;;;;;;16.00;9.13;;;14.10;99.90;;;;;;5019553;28;20863;-56
2021/11/01 13:10:23;;;;;;;15.10;7.40;;;14.10;99.90;;;;;;5019427;28;20445;-51
2021/11/01 13:13:08;;;;;;;10.90;7.13;;;14.10;99.90;;;;;;5019494;28;20532;-52
2021/11/01 13:18:21;;;;;;;16.93;8.67;;;14.00;99.90;;;;;;4991583;28;20429;-53
2021/11/01 13:20:52;;;;;;;10.90;7.73;;;14.00;99.90;;;;;;5019231;28;20556;-54
2021/11/01 13:23:19;;;;;;;11.20;7.30;;;14.00;99.90;;;;;;5018797;28;20484;-54
2021/11/01 13:26:01;;;;;;;11.10;6.20;;;13.90;99.90;;;;;;5019107;28;20453;-54
2021/11/01 13:28:48;;;;;;;15.50;7.20;;;14.00;99.90;;;;;;5018281;28;20495;-54
2021/11/01 13:37:03;;;;;;;13.67;7.13;;;14.00;99.90;;;;;;5018669;28;20480;-56
2021/11/01 13:39:31;;;;;;;12.23;6.10;;;14.00;99.90;;;;;;5018749;28;20433;-57
2021/11/01 13:41:59;;;;;;;10.67;6.50;;;14.00;99.90;;;;;;5018006;28;20473;-53
2021/11/01 13:44:28;;;;;;;14.33;6.03;;;14.00;99.90;;;;;;5018697;28;20460;-54
2021/11/01 13:47:00;;;;;;;13.63;5.70;;;14.00;99.90;;;;;;5017624;28;20480;-54
2021/11/01 13:49:30;;;;;;;8.63;5.10;;;14.00;99.90;;;;;;5018265;28;20456;-53
2021/11/01 13:52:09;;;;;;;7.47;4.47;;;14.00;99.90;;;;;;5018506;28;20760;-51
2021/11/01 13:54:39;;;;;;;7.40;3.60;;;14.00;99.90;;;;;;5018357;28;20540;-54
2021/11/01 13:57:07;;;;;;;8.10;4.33;;;13.90;99.90;;;;;;5018607;28;20441;-52
2021/11/01 13:59:45;;;;;;;6.00;4.00;;;13.90;99.90;;;;;;5029447;28;20449;-53
2021/11/01 14:13:23;;;;;;;8.83;4.40;;;13.60;99.90;;;;;;5042046;28;20420;-55
2021/11/01 14:27:12;;;;;;;4.40;3.47;;;13.30;99.90;;;;;;5192082;23;20498;-42
2021/11/01 14:30:04;;;;;;;6.40;3.40;;;13.30;99.90;;;;;;5041168;28;20526;-55
2021/11/01 14:33:04;;;;;;;12.13;3.57;;;13.30;99.90;;;;;;5040891;28;20479;-45
2021/11/01 14:55:46;;;;;;;4.30;2.03;;;12.80;99.90;;;;;;5034901;28;20412;-55
2021/11/01 15:17:45;;;;;;;2.60;1.57;;;12.50;99.90;;;;;;5041001;23;20562;-50
2021/11/01 15:22:57;;;;;;;2.30;1.67;;;12.50;99.90;;;;;;5039038;23;20483;-53
2021/11/01 15:28:17;;;;;;;4.00;2.10;;;12.40;99.90;;;;;;5039669;23;20488;-53
2021/11/01 15:39:31;;;;;;;6.00;2.70;;;12.40;99.90;;;;;;5019485;28;20443;-54
2021/11/01 16:18:01;;;;;;;5.87;3.47;;;12.30;99.90;;;;;;5005045;28;20460;-51
2021/11/01 16:20:29;;;;;;;8.90;2.97;;;12.30;99.90;;;;;;5044931;23;20491;-55
2021/11/01 16:23:11;;;;;;;4.43;2.80;;;12.30;99.90;;;;;;5037711;28;20464;-55
2021/11/01 16:25:39;;;;;;;8.47;2.80;;;12.30;99.90;;;;;;5045341;23;20514;-54
2021/11/01 16:28:08;;;;;;;15.63;4.03;;;12.30;99.90;;;;;;5038003;28;20793;-55
2021/11/01 16:30:36;;;;;;;7.40;4.00;;;12.30;99.90;;;;;;5045366;23;20498;-51
2021/11/01 16:33:07;;;;;;;5.03;3.50;;;12.30;99.90;;;;;;5037921;28;20476;-52
2021/11/01 16:35:39;;;;;;;7.57;3.47;;;12.30;99.90;;;;;;5044790;23;20511;-54
2021/11/01 16:38:10;;;;;;;6.17;3.37;;;12.40;99.90;;;;;;5037330;28;20491;-54
2021/11/01 16:40:39;;;;;;;4.57;2.83;;;12.40;99.90;;;;;;5044456;23;20502;-53
2021/11/01 16:43:13;;;;;;;4.80;2.77;;;13.20;99.90;;;;;;5037134;28;20483;-51
2021/11/01 16:45:41;;;;;;;6.87;2.80;;;13.70;99.90;;;;;;5045837;23;20577;-55
2021/11/01 16:48:08;;;;;;;5.70;3.17;;;13.60;99.90;;;;;;5039574;28;20472;-52
2021/11/01 16:50:35;;;;;;;6.00;3.07;;;13.30;99.90;;;;;;5048388;23;20904;-54
2021/11/01 16:53:02;;;;;;;4.17;3.40;;;13.10;99.90;;;;;;5040373;28;20500;-54
2021/11/01 16:55:33;;;;;;;4.17;3.00;;;12.90;99.90;;;;;;5062184;23;20487;-56
2021/11/01 16:58:03;;;;;;;5.03;3.47;;;12.80;99.90;;;;;;5040539;28;20467;-56
2021/11/01 17:00:35;;;;;;;9.07;3.30;;;12.70;99.90;;;;;;5047489;23;20563;-55
2021/11/01 17:03:12;;;;;;;4.20;2.90;;;12.70;99.90;;;;;;5040152;28;20474;-52
2021/11/01 17:05:50;;;;;;;7.57;4.10;;;12.60;99.90;;;;;;5046893;23;20479;-53
2021/11/01 17:22:06;;;;;;;4.43;3.77;;;12.40;99.90;;;;;;5046963;23;20486;-54
2021/11/01 17:24:42;;;;;;;7.17;3.70;;;12.40;99.90;;;;;;5040353;28;20463;-53
2021/11/01 17:27:26;;;;;;;7.10;3.83;;;12.40;99.90;;;;;;5054894;23;20494;-53
2021/11/01 17:35:49;;;;;;;8.30;4.53;;;12.30;99.90;;;;;;5021127;28;20432;-53
2021/11/01 18:39:47;;;;;;;3.57;2.67;;;12.00;99.90;;;;;;5035315;28;20439;-52
2021/11/01 18:45:10;;;;;;;9.03;3.20;;;11.90;99.90;;;;;;5010026;28;20498;-52
2021/11/01 18:53:14;;;;;;;5.83;3.30;;;11.90;99.90;;;;;;5024878;23;20503;-52
2021/11/01 18:55:50;;;;;;;8.67;3.03;;;12.00;99.90;;;;;;5015447;28;20550;-54
2021/11/01 18:58:20;;;;;;;3.63;2.77;;;11.90;99.90;;;;;;5046382;23;20479;-53
2021/11/01 19:00:47;;;;;;;15.83;3.30;;;11.90;99.90;;;;;;5033917;28;20490;-56
2021/11/01 19:03:17;;;;;;;7.20;3.30;;;11.90;99.90;;;;;;5040860;23;20500;-54
2021/11/01 19:05:47;;;;;;;6.10;3.37;;;11.90;99.90;;;;;;5033639;28;20891;-52
2021/11/01 19:08:20;;;;;;;6.60;3.20;;;11.90;99.90;;;;;;5036206;23;20562;-52
2021/11/01 23:34:33;;;;;;;4.03;2.90;;;11.60;99.90;;;;;;5641388;23;20488;-65
2021/11/01 23:36:59;;;;;;;6.63;3.00;;;11.60;99.90;;;;;;5050812;28;20441;-53
2021/11/01 23:39:27;;;;;;;4.50;2.70;;;11.70;99.90;;;;;;5057435;23;20502;-54
2021/11/01 23:41:54;;;;;;;4.57;2.63;;;11.60;99.90;;;;;;5050531;28;20431;-63
2021/11/01 23:46:46;;;;;;;3.93;2.77;;;11.60;99.90;;;;;;5066504;23;20536;-58
2021/11/01 23:49:13;;;;;;;9.07;3.30;;;11.60;99.90;;;;;;5050994;28;20224;-61
2021/11/01 23:51:48;;;;;;;11.63;3.27;;;11.60;99.90;;;;;;5057596;23;20539;-61
2021/11/01 23:54:35;;;;;;;5.03;3.43;;;11.60;99.90;;;;;;5050598;28;20452;-64
2021/11/01 23:57:02;;;;;;;3.67;2.20;;;11.60;99.90;;;;;;5058297;23;20503;-56
2021/11/01 23:59:29;;;;;;;5.43;2.90;;;11.60;99.90;;;;;;5050997;28;20928;-63
